sensor_id;sensor_type;location;lat;lon;timestamp;temperature;humidity
75821;DHT22;64454;51.984;9.838;2024-02-26T00:02:08;5.40;1.00
75821;DHT22;64454;51.984;9.838;2024-02-26T00:04:34;5.40;1.00
75821;DHT22;64454;51.984;9.838;2024-02-26T00:07:00;5.50;1.00
75821;DHT22;64454;51.984;9.838;2024-02-26T00:09:27;5.40;1.00
75821;DHT22;64454;51.984;9.838;2024-02-26T00:11:53;5.50;1.00
75821;DHT22;64454;51.984;9.838;2024-02-26T00:14:20;5.50;1.00
75821;DHT22;64454;51.984;9.838;2024-02-26T00:16:47;5.40;1.00
75821;DHT22;64454;51.984;9.838;2024-02-26T00:19:13;5.40;1.00
75821;DHT22;64454;51.984;9.838;2024-02-26T00:21:40;5.40;1.00
75821;DHT22;64454;51.984;9.838;2024-02-26T00:24:07;5.40;1.00
75821;DHT22;64454;51.984;9.838;2024-02-26T00:26:33;5.40;1.00
75821;DHT22;64454;51.984;9.838;2024-02-26T00:28:59;5.40;1.00
75821;DHT22;64454;51.984;9.838;2024-02-26T00:31:25;5.40;1.00
75821;DHT22;64454;51.984;9.838;2024-02-26T00:33:53;5.40;1.00
75821;DHT22;64454;51.984;9.838;2024-02-26T00:36:19;5.50;1.00
75821;DHT22;64454;51.984;9.838;2024-02-26T00:38:45;5.40;1.00
75821;DHT22;64454;51.984;9.838;2024-02-26T00:41:16;5.40;1.00
75821;DHT22;64454;51.984;9.838;2024-02-26T00:43:42;5.40;1.00
75821;DHT22;64454;51.984;9.838;2024-02-26T00:46:08;5.40;1.00
75821;DHT22;64454;51.984;9.838;2024-02-26T00:48:35;5.40;1.00
75821;DHT22;64454;51.984;9.838;2024-02-26T00:51:01;5.30;1.00
75821;DHT22;64454;51.984;9.838;2024-02-26T00:53:30;5.30;1.00
75821;DHT22;64454;51.984;9.838;2024-02-26T00:55:56;5.30;1.00
75821;DHT22;64454;51.984;9.838;2024-02-26T00:58:24;5.30;1.00
75821;DHT22;64454;51.984;9.838;2024-02-26T01:00:50;5.20;1.00
75821;DHT22;64454;51.984;9.838;2024-02-26T01:03:17;5.20;1.00
75821;DHT22;64454;51.984;9.838;2024-02-26T01:05:43;5.10;1.00
75821;DHT22;64454;51.984;9.838;2024-02-26T01:08:10;5.10;1.00
75821;DHT22;64454;51.984;9.838;2024-02-26T01:10:36;5.10;1.00
75821;DHT22;64454;51.984;9.838;2024-02-26T01:13:02;5.10;1.00
75821;DHT22;64454;51.984;9.838;2024-02-26T01:15:29;5.10;1.00
75821;DHT22;64454;51.984;9.838;2024-02-26T01:17:55;5.10;1.00
75821;DHT22;64454;51.984;9.838;2024-02-26T01:20:21;5.10;1.00
75821;DHT22;64454;51.984;9.838;2024-02-26T01:22:47;5.10;1.00
75821;DHT22;64454;51.984;9.838;2024-02-26T01:25:14;5.10;1.00
75821;DHT22;64454;51.984;9.838;2024-02-26T01:27:41;5.10;1.00
75821;DHT22;64454;51.984;9.838;2024-02-26T01:30:10;5.10;1.00
75821;DHT22;64454;51.984;9.838;2024-02-26T01:32:36;5.10;1.00
75821;DHT22;64454;51.984;9.838;2024-02-26T01:35:03;5.00;1.00
75821;DHT22;64454;51.984;9.838;2024-02-26T01:37:30;5.00;1.00
75821;DHT22;64454;51.984;9.838;2024-02-26T01:39:56;5.00;1.00
75821;DHT22;64454;51.984;9.838;2024-02-26T01:42:23;5.00;1.00
75821;DHT22;64454;51.984;9.838;2024-02-26T01:44:49;5.00;1.00
75821;DHT22;64454;51.984;9.838;2024-02-26T01:47:15;5.00;1.00
75821;DHT22;64454;51.984;9.838;2024-02-26T01:49:42;5.00;1.00
75821;DHT22;64454;51.984;9.838;2024-02-26T01:52:09;5.10;1.00
75821;DHT22;64454;51.984;9.838;2024-02-26T01:54:37;5.10;1.00
75821;DHT22;64454;51.984;9.838;2024-02-26T01:57:04;5.10;1.00
75821;DHT22;64454;51.984;9.838;2024-02-26T01:59:34;5.10;1.00
75821;DHT22;64454;51.984;9.838;2024-02-26T02:02:02;5.10;1.00
75821;DHT22;64454;51.984;9.838;2024-02-26T02:04:31;5.00;1.00
75821;DHT22;64454;51.984;9.838;2024-02-26T02:06:58;5.00;1.00
75821;DHT22;64454;51.984;9.838;2024-02-26T02:09:27;5.00;1.00
75821;DHT22;64454;51.984;9.838;2024-02-26T02:11:53;5.00;1.00
75821;DHT22;64454;51.984;9.838;2024-02-26T02:14:20;5.00;1.00
75821;DHT22;64454;51.984;9.838;2024-02-26T02:16:47;5.00;1.00
75821;DHT22;64454;51.984;9.838;2024-02-26T02:19:13;5.00;1.00
75821;DHT22;64454;51.984;9.838;2024-02-26T02:21:40;5.00;1.00
75821;DHT22;64454;51.984;9.838;2024-02-26T02:24:06;5.00;1.00
75821;DHT22;64454;51.984;9.838;2024-02-26T02:26:32;5.00;1.00
75821;DHT22;64454;51.984;9.838;2024-02-26T02:28:59;5.00;1.00
75821;DHT22;64454;51.984;9.838;2024-02-26T02:31:26;5.00;1.00
75821;DHT22;64454;51.984;9.838;2024-02-26T02:33:53;5.00;1.00
75821;DHT22;64454;51.984;9.838;2024-02-26T02:36:19;5.10;1.00
75821;DHT22;64454;51.984;9.838;2024-02-26T02:38:49;5.00;1.00
75821;DHT22;64454;51.984;9.838;2024-02-26T02:41:16;5.00;1.00
75821;DHT22;64454;51.984;9.838;2024-02-26T02:43:42;4.90;1.00
75821;DHT22;64454;51.984;9.838;2024-02-26T02:46:08;4.90;1.00
75821;DHT22;64454;51.984;9.838;2024-02-26T02:48:37;4.90;1.00
75821;DHT22;64454;51.984;9.838;2024-02-26T02:51:04;4.90;1.00
75821;DHT22;64454;51.984;9.838;2024-02-26T02:53:30;4.80;1.00
75821;DHT22;64454;51.984;9.838;2024-02-26T02:55:56;4.80;1.00
75821;DHT22;64454;51.984;9.838;2024-02-26T02:58:23;4.70;1.00
75821;DHT22;64454;51.984;9.838;2024-02-26T03:00:49;4.80;1.00
75821;DHT22;64454;51.984;9.838;2024-02-26T03:03:15;4.80;1.00
75821;DHT22;64454;51.984;9.838;2024-02-26T03:05:41;4.90;1.00
75821;DHT22;64454;51.984;9.838;2024-02-26T03:08:08;4.90;1.00
75821;DHT22;64454;51.984;9.838;2024-02-26T03:10:34;5.00;1.00
75821;DHT22;64454;51.984;9.838;2024-02-26T03:13:01;5.00;1.00
75821;DHT22;64454;51.984;9.838;2024-02-26T03:15:28;5.00;1.00
75821;DHT22;64454;51.984;9.838;2024-02-26T03:17:54;5.00;1.00
75821;DHT22;64454;51.984;9.838;2024-02-26T03:20:20;5.00;1.00
75821;DHT22;64454;51.984;9.838;2024-02-26T03:22:46;5.00;1.00
75821;DHT22;64454;51.984;9.838;2024-02-26T03:25:12;5.10;1.00
75821;DHT22;64454;51.984;9.838;2024-02-26T03:27:38;5.10;1.00
75821;DHT22;64454;51.984;9.838;2024-02-26T03:30:06;5.20;1.00
75821;DHT22;64454;51.984;9.838;2024-02-26T03:32:33;5.20;1.00
75821;DHT22;64454;51.984;9.838;2024-02-26T03:34:59;5.20;1.00
75821;DHT22;64454;51.984;9.838;2024-02-26T03:37:25;5.30;1.00
75821;DHT22;64454;51.984;9.838;2024-02-26T03:39:51;5.30;1.00
75821;DHT22;64454;51.984;9.838;2024-02-26T03:42:17;5.40;1.00
75821;DHT22;64454;51.984;9.838;2024-02-26T03:44:44;5.40;1.00
75821;DHT22;64454;51.984;9.838;2024-02-26T03:47:11;5.40;1.00
75821;DHT22;64454;51.984;9.838;2024-02-26T03:49:37;5.30;1.00
75821;DHT22;64454;51.984;9.838;2024-02-26T03:52:04;5.40;1.00
75821;DHT22;64454;51.984;9.838;2024-02-26T03:54:30;5.40;1.00
75821;DHT22;64454;51.984;9.838;2024-02-26T03:56:56;5.40;1.00
75821;DHT22;64454;51.984;9.838;2024-02-26T03:59:22;5.40;1.00
75821;DHT22;64454;51.984;9.838;2024-02-26T04:01:50;5.40;1.00
75821;DHT22;64454;51.984;9.838;2024-02-26T04:04:17;5.40;1.00
75821;DHT22;64454;51.984;9.838;2024-02-26T04:06:44;5.50;1.00
75821;DHT22;64454;51.984;9.838;2024-02-26T04:09:11;5.50;1.00
75821;DHT22;64454;51.984;9.838;2024-02-26T04:11:37;5.50;1.00
75821;DHT22;64454;51.984;9.838;2024-02-26T04:14:03;5.50;1.00
75821;DHT22;64454;51.984;9.838;2024-02-26T04:16:31;5.60;1.00
75821;DHT22;64454;51.984;9.838;2024-02-26T04:18:57;5.60;1.00
75821;DHT22;64454;51.984;9.838;2024-02-26T04:21:24;5.60;1.00
75821;DHT22;64454;51.984;9.838;2024-02-26T04:23:50;5.60;1.00
75821;DHT22;64454;51.984;9.838;2024-02-26T04:26:16;5.70;1.00
75821;DHT22;64454;51.984;9.838;2024-02-26T04:28:42;5.70;1.00
75821;DHT22;64454;51.984;9.838;2024-02-26T04:31:08;5.70;1.00
75821;DHT22;64454;51.984;9.838;2024-02-26T04:33:34;5.70;1.00
75821;DHT22;64454;51.984;9.838;2024-02-26T04:36:00;5.60;1.00
75821;DHT22;64454;51.984;9.838;2024-02-26T04:38:27;5.60;1.00
75821;DHT22;64454;51.984;9.838;2024-02-26T04:40:53;5.50;1.00
75821;DHT22;64454;51.984;9.838;2024-02-26T04:43:19;5.50;1.00
75821;DHT22;64454;51.984;9.838;2024-02-26T04:45:45;5.50;1.00
75821;DHT22;64454;51.984;9.838;2024-02-26T04:48:12;5.60;1.00
75821;DHT22;64454;51.984;9.838;2024-02-26T04:50:38;5.60;1.00
75821;DHT22;64454;51.984;9.838;2024-02-26T04:53:04;5.60;1.00
75821;DHT22;64454;51.984;9.838;2024-02-26T04:55:31;5.60;1.00
75821;DHT22;64454;51.984;9.838;2024-02-26T04:57:57;5.60;1.00
75821;DHT22;64454;51.984;9.838;2024-02-26T05:00:23;5.70;1.00
75821;DHT22;64454;51.984;9.838;2024-02-26T05:02:49;5.70;1.00
75821;DHT22;64454;51.984;9.838;2024-02-26T05:05:15;5.70;1.00
75821;DHT22;64454;51.984;9.838;2024-02-26T05:07:41;5.70;1.00
75821;DHT22;64454;51.984;9.838;2024-02-26T05:10:09;5.70;1.00
75821;DHT22;64454;51.984;9.838;2024-02-26T05:12:36;5.60;1.00
75821;DHT22;64454;51.984;9.838;2024-02-26T05:15:02;5.70;1.00
75821;DHT22;64454;51.984;9.838;2024-02-26T05:17:28;5.60;1.00
75821;DHT22;64454;51.984;9.838;2024-02-26T05:19:55;5.60;1.00
75821;DHT22;64454;51.984;9.838;2024-02-26T05:22:21;5.60;1.00
75821;DHT22;64454;51.984;9.838;2024-02-26T05:24:47;5.70;1.00
75821;DHT22;64454;51.984;9.838;2024-02-26T05:27:13;5.70;1.00
75821;DHT22;64454;51.984;9.838;2024-02-26T05:29:40;5.70;1.00
75821;DHT22;64454;51.984;9.838;2024-02-26T05:32:06;5.70;1.00
75821;DHT22;64454;51.984;9.838;2024-02-26T05:34:32;5.70;1.00
75821;DHT22;64454;51.984;9.838;2024-02-26T05:36:58;5.70;1.00
75821;DHT22;64454;51.984;9.838;2024-02-26T05:39:25;5.80;1.00
75821;DHT22;64454;51.984;9.838;2024-02-26T05:41:51;5.70;1.00
75821;DHT22;64454;51.984;9.838;2024-02-26T05:44:17;5.60;1.00
75821;DHT22;64454;51.984;9.838;2024-02-26T05:46:44;5.60;1.00
75821;DHT22;64454;51.984;9.838;2024-02-26T05:49:10;5.50;1.00
75821;DHT22;64454;51.984;9.838;2024-02-26T05:51:36;5.50;1.00
75821;DHT22;64454;51.984;9.838;2024-02-26T05:54:02;5.50;1.00
75821;DHT22;64454;51.984;9.838;2024-02-26T05:56:29;5.60;1.00
75821;DHT22;64454;51.984;9.838;2024-02-26T05:58:55;5.70;1.00
75821;DHT22;64454;51.984;9.838;2024-02-26T06:01:21;5.70;1.00
75821;DHT22;64454;51.984;9.838;2024-02-26T06:03:48;5.80;1.00
75821;DHT22;64454;51.984;9.838;2024-02-26T06:06:14;5.70;1.00
75821;DHT22;64454;51.984;9.838;2024-02-26T06:08:40;5.80;1.00
75821;DHT22;64454;51.984;9.838;2024-02-26T06:11:07;5.80;1.00
75821;DHT22;64454;51.984;9.838;2024-02-26T06:13:33;5.80;1.00
75821;DHT22;64454;51.984;9.838;2024-02-26T06:15:59;5.80;1.00
75821;DHT22;64454;51.984;9.838;2024-02-26T06:18:25;5.60;1.00
75821;DHT22;64454;51.984;9.838;2024-02-26T06:20:52;5.50;1.00
75821;DHT22;64454;51.984;9.838;2024-02-26T06:23:18;5.50;1.00
75821;DHT22;64454;51.984;9.838;2024-02-26T06:25:44;5.40;1.00
75821;DHT22;64454;51.984;9.838;2024-02-26T06:28:12;5.40;1.00
75821;DHT22;64454;51.984;9.838;2024-02-26T06:30:38;5.50;1.00
75821;DHT22;64454;51.984;9.838;2024-02-26T06:33:04;5.60;1.00
75821;DHT22;64454;51.984;9.838;2024-02-26T06:35:31;5.80;1.00
75821;DHT22;64454;51.984;9.838;2024-02-26T06:37:58;5.90;1.00
75821;DHT22;64454;51.984;9.838;2024-02-26T06:40:24;6.00;1.00
75821;DHT22;64454;51.984;9.838;2024-02-26T06:42:51;5.80;1.00
75821;DHT22;64454;51.984;9.838;2024-02-26T06:45:17;5.90;1.00
75821;DHT22;64454;51.984;9.838;2024-02-26T06:47:43;6.00;1.00
75821;DHT22;64454;51.984;9.838;2024-02-26T06:50:11;6.00;1.00
75821;DHT22;64454;51.984;9.838;2024-02-26T06:52:38;5.90;1.00
75821;DHT22;64454;51.984;9.838;2024-02-26T06:55:05;6.00;1.00
75821;DHT22;64454;51.984;9.838;2024-02-26T06:57:33;6.10;1.00
75821;DHT22;64454;51.984;9.838;2024-02-26T07:00:00;6.20;1.00
75821;DHT22;64454;51.984;9.838;2024-02-26T07:02:26;6.20;1.00
75821;DHT22;64454;51.984;9.838;2024-02-26T07:04:52;6.20;1.00
75821;DHT22;64454;51.984;9.838;2024-02-26T07:07:18;6.20;1.00
75821;DHT22;64454;51.984;9.838;2024-02-26T07:09:44;6.30;1.00
75821;DHT22;64454;51.984;9.838;2024-02-26T07:12:11;6.40;1.00
75821;DHT22;64454;51.984;9.838;2024-02-26T07:14:37;6.50;1.00
75821;DHT22;64454;51.984;9.838;2024-02-26T07:17:03;6.50;1.00
75821;DHT22;64454;51.984;9.838;2024-02-26T07:19:29;6.50;1.00
75821;DHT22;64454;51.984;9.838;2024-02-26T07:21:55;6.50;1.00
75821;DHT22;64454;51.984;9.838;2024-02-26T07:24:21;6.60;1.00
75821;DHT22;64454;51.984;9.838;2024-02-26T07:26:47;6.60;1.00
75821;DHT22;64454;51.984;9.838;2024-02-26T07:29:14;6.70;1.00
75821;DHT22;64454;51.984;9.838;2024-02-26T07:31:40;6.80;1.00
75821;DHT22;64454;51.984;9.838;2024-02-26T07:34:06;6.80;1.00
75821;DHT22;64454;51.984;9.838;2024-02-26T07:36:33;6.70;1.00
75821;DHT22;64454;51.984;9.838;2024-02-26T07:38:59;6.80;1.00
75821;DHT22;64454;51.984;9.838;2024-02-26T07:41:26;6.70;1.00
75821;DHT22;64454;51.984;9.838;2024-02-26T07:43:52;6.80;1.00
75821;DHT22;64454;51.984;9.838;2024-02-26T07:46:19;6.80;1.00
75821;DHT22;64454;51.984;9.838;2024-02-26T07:48:45;6.80;1.00
75821;DHT22;64454;51.984;9.838;2024-02-26T07:51:12;6.80;1.00
75821;DHT22;64454;51.984;9.838;2024-02-26T07:53:39;6.90;1.00
75821;DHT22;64454;51.984;9.838;2024-02-26T07:56:06;6.90;1.00
75821;DHT22;64454;51.984;9.838;2024-02-26T07:58:33;7.10;1.00
75821;DHT22;64454;51.984;9.838;2024-02-26T08:01:00;7.20;1.00
75821;DHT22;64454;51.984;9.838;2024-02-26T08:03:27;7.20;1.00
75821;DHT22;64454;51.984;9.838;2024-02-26T08:05:54;7.30;1.00
75821;DHT22;64454;51.984;9.838;2024-02-26T08:08:20;7.30;1.00
75821;DHT22;64454;51.984;9.838;2024-02-26T08:10:46;7.50;1.00
75821;DHT22;64454;51.984;9.838;2024-02-26T08:13:12;7.60;1.00
75821;DHT22;64454;51.984;9.838;2024-02-26T08:15:38;7.60;1.00
75821;DHT22;64454;51.984;9.838;2024-02-26T08:18:05;7.70;1.00
75821;DHT22;64454;51.984;9.838;2024-02-26T08:20:32;7.80;1.00
75821;DHT22;64454;51.984;9.838;2024-02-26T08:22:58;7.90;1.00
75821;DHT22;64454;51.984;9.838;2024-02-26T08:25:24;8.00;1.00
75821;DHT22;64454;51.984;9.838;2024-02-26T08:27:50;8.00;1.00
75821;DHT22;64454;51.984;9.838;2024-02-26T08:30:17;8.10;1.00
75821;DHT22;64454;51.984;9.838;2024-02-26T08:32:43;8.20;1.00
75821;DHT22;64454;51.984;9.838;2024-02-26T08:35:09;8.30;1.00
75821;DHT22;64454;51.984;9.838;2024-02-26T08:37:36;8.30;1.00
75821;DHT22;64454;51.984;9.838;2024-02-26T08:40:03;8.30;1.00
75821;DHT22;64454;51.984;9.838;2024-02-26T08:42:30;8.30;1.00
75821;DHT22;64454;51.984;9.838;2024-02-26T08:44:56;8.40;1.00
75821;DHT22;64454;51.984;9.838;2024-02-26T08:47:22;8.40;1.00
75821;DHT22;64454;51.984;9.838;2024-02-26T08:49:48;8.40;1.00
75821;DHT22;64454;51.984;9.838;2024-02-26T08:52:15;8.50;1.00
75821;DHT22;64454;51.984;9.838;2024-02-26T08:54:41;8.70;1.00
75821;DHT22;64454;51.984;9.838;2024-02-26T08:57:07;8.70;1.00
75821;DHT22;64454;51.984;9.838;2024-02-26T08:59:33;8.80;1.00
75821;DHT22;64454;51.984;9.838;2024-02-26T09:01:59;8.90;1.00
75821;DHT22;64454;51.984;9.838;2024-02-26T09:04:25;8.90;1.00
75821;DHT22;64454;51.984;9.838;2024-02-26T09:06:52;9.00;1.00
75821;DHT22;64454;51.984;9.838;2024-02-26T09:09:19;9.10;1.00
75821;DHT22;64454;51.984;9.838;2024-02-26T09:11:46;9.20;1.00
75821;DHT22;64454;51.984;9.838;2024-02-26T09:14:12;9.10;1.00
75821;DHT22;64454;51.984;9.838;2024-02-26T09:16:38;8.90;1.00
75821;DHT22;64454;51.984;9.838;2024-02-26T09:19:04;8.90;1.00
75821;DHT22;64454;51.984;9.838;2024-02-26T09:21:30;8.90;1.00
75821;DHT22;64454;51.984;9.838;2024-02-26T09:23:56;8.80;1.00
75821;DHT22;64454;51.984;9.838;2024-02-26T09:26:22;8.90;1.00
75821;DHT22;64454;51.984;9.838;2024-02-26T09:28:49;8.90;1.00
75821;DHT22;64454;51.984;9.838;2024-02-26T09:31:17;9.00;1.00
75821;DHT22;64454;51.984;9.838;2024-02-26T09:33:43;9.00;1.00
75821;DHT22;64454;51.984;9.838;2024-02-26T09:36:10;9.10;1.00
75821;DHT22;64454;51.984;9.838;2024-02-26T09:38:36;9.20;1.00
75821;DHT22;64454;51.984;9.838;2024-02-26T09:41:03;9.30;1.00
75821;DHT22;64454;51.984;9.838;2024-02-26T09:43:34;9.20;1.00
75821;DHT22;64454;51.984;9.838;2024-02-26T09:46:02;9.10;1.00
75821;DHT22;64454;51.984;9.838;2024-02-26T09:48:29;9.10;1.00
75821;DHT22;64454;51.984;9.838;2024-02-26T09:50:57;9.20;1.00
75821;DHT22;64454;51.984;9.838;2024-02-26T09:53:23;9.20;1.00
75821;DHT22;64454;51.984;9.838;2024-02-26T09:55:49;9.30;1.00
75821;DHT22;64454;51.984;9.838;2024-02-26T09:58:16;9.40;1.00
75821;DHT22;64454;51.984;9.838;2024-02-26T10:00:48;9.50;1.00
75821;DHT22;64454;51.984;9.838;2024-02-26T10:03:21;9.60;1.00
75821;DHT22;64454;51.984;9.838;2024-02-26T10:05:51;9.60;1.00
75821;DHT22;64454;51.984;9.838;2024-02-26T10:08:21;9.70;1.00
75821;DHT22;64454;51.984;9.838;2024-02-26T10:10:48;9.80;1.00
75821;DHT22;64454;51.984;9.838;2024-02-26T10:13:15;9.80;1.00
75821;DHT22;64454;51.984;9.838;2024-02-26T10:15:41;9.70;1.00
75821;DHT22;64454;51.984;9.838;2024-02-26T10:18:07;9.80;1.00
75821;DHT22;64454;51.984;9.838;2024-02-26T10:20:34;9.80;1.00
75821;DHT22;64454;51.984;9.838;2024-02-26T10:23:02;9.90;1.00
75821;DHT22;64454;51.984;9.838;2024-02-26T10:25:29;10.00;1.00
75821;DHT22;64454;51.984;9.838;2024-02-26T10:27:58;10.30;1.00
75821;DHT22;64454;51.984;9.838;2024-02-26T10:30:27;10.50;1.00
75821;DHT22;64454;51.984;9.838;2024-02-26T10:32:56;10.90;1.00
75821;DHT22;64454;51.984;9.838;2024-02-26T10:35:22;11.30;1.00
75821;DHT22;64454;51.984;9.838;2024-02-26T10:37:49;11.60;1.00
75821;DHT22;64454;51.984;9.838;2024-02-26T10:40:16;11.80;1.00
75821;DHT22;64454;51.984;9.838;2024-02-26T10:42:43;12.10;1.00
75821;DHT22;64454;51.984;9.838;2024-02-26T10:45:11;12.40;1.00
75821;DHT22;64454;51.984;9.838;2024-02-26T10:47:37;12.30;1.00
75821;DHT22;64454;51.984;9.838;2024-02-26T10:50:05;12.00;1.00
75821;DHT22;64454;51.984;9.838;2024-02-26T10:52:34;11.80;1.00
75821;DHT22;64454;51.984;9.838;2024-02-26T10:55:03;11.70;1.00
75821;DHT22;64454;51.984;9.838;2024-02-26T10:57:33;11.80;1.00
75821;DHT22;64454;51.984;9.838;2024-02-26T11:00:04;11.80;1.00
75821;DHT22;64454;51.984;9.838;2024-02-26T11:02:32;11.70;1.00
75821;DHT22;64454;51.984;9.838;2024-02-26T11:05:01;11.70;1.00
75821;DHT22;64454;51.984;9.838;2024-02-26T11:07:30;11.50;1.00
75821;DHT22;64454;51.984;9.838;2024-02-26T11:09:57;11.40;1.00
75821;DHT22;64454;51.984;9.838;2024-02-26T11:12:27;11.20;1.00
75821;DHT22;64454;51.984;9.838;2024-02-26T11:14:55;11.00;1.00
75821;DHT22;64454;51.984;9.838;2024-02-26T11:17:26;10.90;1.00
75821;DHT22;64454;51.984;9.838;2024-02-26T11:19:55;11.00;1.00
75821;DHT22;64454;51.984;9.838;2024-02-26T11:22:23;11.10;1.00
75821;DHT22;64454;51.984;9.838;2024-02-26T11:24:52;11.20;1.00
75821;DHT22;64454;51.984;9.838;2024-02-26T11:27:22;11.50;1.00
75821;DHT22;64454;51.984;9.838;2024-02-26T11:29:52;11.70;1.00
75821;DHT22;64454;51.984;9.838;2024-02-26T11:32:21;11.60;1.00
75821;DHT22;64454;51.984;9.838;2024-02-26T11:34:47;11.80;1.00
75821;DHT22;64454;51.984;9.838;2024-02-26T11:37:15;11.90;1.00
75821;DHT22;64454;51.984;9.838;2024-02-26T11:39:43;11.80;1.00
75821;DHT22;64454;51.984;9.838;2024-02-26T11:42:14;11.90;1.00
75821;DHT22;64454;51.984;9.838;2024-02-26T11:44:41;12.00;1.00
75821;DHT22;64454;51.984;9.838;2024-02-26T11:47:11;12.10;1.00
75821;DHT22;64454;51.984;9.838;2024-02-26T11:49:38;12.30;1.00
75821;DHT22;64454;51.984;9.838;2024-02-26T11:52:06;12.50;1.00
75821;DHT22;64454;51.984;9.838;2024-02-26T11:54:43;12.80;1.00
75821;DHT22;64454;51.984;9.838;2024-02-26T11:57:27;12.80;1.00
75821;DHT22;64454;51.984;9.838;2024-02-26T11:59:54;12.80;1.00
75821;DHT22;64454;51.984;9.838;2024-02-26T12:02:45;13.00;1.00
75821;DHT22;64454;51.984;9.838;2024-02-26T12:05:14;13.10;1.00
75821;DHT22;64454;51.984;9.838;2024-02-26T12:07:47;13.20;1.00
75821;DHT22;64454;51.984;9.838;2024-02-26T12:10:16;13.30;1.00
75821;DHT22;64454;51.984;9.838;2024-02-26T12:12:53;13.40;1.00
75821;DHT22;64454;51.984;9.838;2024-02-26T12:15:23;13.40;1.00
75821;DHT22;64454;51.984;9.838;2024-02-26T12:17:50;13.50;1.00
75821;DHT22;64454;51.984;9.838;2024-02-26T12:20:18;13.50;1.00
75821;DHT22;64454;51.984;9.838;2024-02-26T12:22:46;13.50;1.00
75821;DHT22;64454;51.984;9.838;2024-02-26T12:25:13;13.30;1.00
75821;DHT22;64454;51.984;9.838;2024-02-26T12:27:39;13.30;1.00
75821;DHT22;64454;51.984;9.838;2024-02-26T12:30:07;13.30;1.00
75821;DHT22;64454;51.984;9.838;2024-02-26T12:32:34;13.00;1.00
75821;DHT22;64454;51.984;9.838;2024-02-26T12:35:01;13.00;1.00
75821;DHT22;64454;51.984;9.838;2024-02-26T12:37:28;12.90;1.00
75821;DHT22;64454;51.984;9.838;2024-02-26T12:39:54;12.70;1.00
75821;DHT22;64454;51.984;9.838;2024-02-26T12:42:20;12.40;1.00
75821;DHT22;64454;51.984;9.838;2024-02-26T12:44:47;12.10;1.00
75821;DHT22;64454;51.984;9.838;2024-02-26T12:47:13;12.00;1.00
75821;DHT22;64454;51.984;9.838;2024-02-26T12:49:42;11.90;1.00
75821;DHT22;64454;51.984;9.838;2024-02-26T12:52:09;11.70;1.00
75821;DHT22;64454;51.984;9.838;2024-02-26T12:54:36;11.60;1.00
75821;DHT22;64454;51.984;9.838;2024-02-26T12:57:04;11.60;1.00
75821;DHT22;64454;51.984;9.838;2024-02-26T12:59:32;11.60;1.00
75821;DHT22;64454;51.984;9.838;2024-02-26T13:02:01;11.50;1.00
75821;DHT22;64454;51.984;9.838;2024-02-26T13:04:29;11.50;1.00
75821;DHT22;64454;51.984;9.838;2024-02-26T13:06:56;11.50;1.00
75821;DHT22;64454;51.984;9.838;2024-02-26T13:09:26;11.40;1.00
75821;DHT22;64454;51.984;9.838;2024-02-26T13:11:53;11.30;1.00
75821;DHT22;64454;51.984;9.838;2024-02-26T13:14:19;11.20;1.00
75821;DHT22;64454;51.984;9.838;2024-02-26T13:16:54;11.30;1.00
75821;DHT22;64454;51.984;9.838;2024-02-26T13:19:21;11.40;1.00
75821;DHT22;64454;51.984;9.838;2024-02-26T13:21:47;11.40;1.00
75821;DHT22;64454;51.984;9.838;2024-02-26T13:24:13;11.40;1.00
75821;DHT22;64454;51.984;9.838;2024-02-26T13:26:40;11.40;1.00
75821;DHT22;64454;51.984;9.838;2024-02-26T13:29:06;11.50;1.00
75821;DHT22;64454;51.984;9.838;2024-02-26T13:31:38;11.50;1.00
75821;DHT22;64454;51.984;9.838;2024-02-26T13:34:05;11.50;1.00
75821;DHT22;64454;51.984;9.838;2024-02-26T13:36:31;11.40;1.00
75821;DHT22;64454;51.984;9.838;2024-02-26T13:38:57;11.30;1.00
75821;DHT22;64454;51.984;9.838;2024-02-26T13:41:24;11.30;1.00
75821;DHT22;64454;51.984;9.838;2024-02-26T13:43:51;11.40;1.00
75821;DHT22;64454;51.984;9.838;2024-02-26T13:46:17;11.30;1.00
75821;DHT22;64454;51.984;9.838;2024-02-26T13:48:43;11.40;1.00
75821;DHT22;64454;51.984;9.838;2024-02-26T13:51:09;11.40;1.00
75821;DHT22;64454;51.984;9.838;2024-02-26T13:53:36;11.30;1.00
75821;DHT22;64454;51.984;9.838;2024-02-26T13:56:02;11.30;1.00
75821;DHT22;64454;51.984;9.838;2024-02-26T13:58:31;11.30;1.00
75821;DHT22;64454;51.984;9.838;2024-02-26T14:00:57;11.30;1.00
75821;DHT22;64454;51.984;9.838;2024-02-26T14:03:25;11.30;1.00
75821;DHT22;64454;51.984;9.838;2024-02-26T14:05:51;11.40;1.00
75821;DHT22;64454;51.984;9.838;2024-02-26T14:08:17;11.30;1.00
75821;DHT22;64454;51.984;9.838;2024-02-26T14:10:43;11.30;1.00
75821;DHT22;64454;51.984;9.838;2024-02-26T14:13:10;11.30;1.00
75821;DHT22;64454;51.984;9.838;2024-02-26T14:15:36;11.30;1.00
75821;DHT22;64454;51.984;9.838;2024-02-26T14:18:04;11.30;1.00
75821;DHT22;64454;51.984;9.838;2024-02-26T14:20:31;11.40;1.00
75821;DHT22;64454;51.984;9.838;2024-02-26T14:22:57;11.50;1.00
75821;DHT22;64454;51.984;9.838;2024-02-26T14:25:23;11.60;1.00
75821;DHT22;64454;51.984;9.838;2024-02-26T14:27:49;11.60;1.00
75821;DHT22;64454;51.984;9.838;2024-02-26T14:30:16;11.60;1.00
75821;DHT22;64454;51.984;9.838;2024-02-26T14:32:42;11.70;1.00
75821;DHT22;64454;51.984;9.838;2024-02-26T14:35:10;11.70;1.00
75821;DHT22;64454;51.984;9.838;2024-02-26T14:37:36;11.70;1.00
75821;DHT22;64454;51.984;9.838;2024-02-26T14:40:03;11.70;1.00
75821;DHT22;64454;51.984;9.838;2024-02-26T14:42:30;11.50;1.00
75821;DHT22;64454;51.984;9.838;2024-02-26T14:44:56;11.50;1.00
75821;DHT22;64454;51.984;9.838;2024-02-26T14:47:22;11.50;1.00
75821;DHT22;64454;51.984;9.838;2024-02-26T14:49:49;11.50;1.00
75821;DHT22;64454;51.984;9.838;2024-02-26T14:52:17;11.60;1.00
75821;DHT22;64454;51.984;9.838;2024-02-26T14:54:44;11.60;1.00
75821;DHT22;64454;51.984;9.838;2024-02-26T14:57:10;11.60;1.00
75821;DHT22;64454;51.984;9.838;2024-02-26T14:59:36;11.60;1.00
75821;DHT22;64454;51.984;9.838;2024-02-26T15:02:04;11.70;1.00
75821;DHT22;64454;51.984;9.838;2024-02-26T15:04:30;11.70;1.00
75821;DHT22;64454;51.984;9.838;2024-02-26T15:06:56;11.70;1.00
75821;DHT22;64454;51.984;9.838;2024-02-26T15:09:23;11.60;1.00
75821;DHT22;64454;51.984;9.838;2024-02-26T15:11:49;11.60;1.00
75821;DHT22;64454;51.984;9.838;2024-02-26T15:14:15;11.50;1.00
75821;DHT22;64454;51.984;9.838;2024-02-26T15:16:41;11.60;1.00
75821;DHT22;64454;51.984;9.838;2024-02-26T15:19:07;11.60;1.00
75821;DHT22;64454;51.984;9.838;2024-02-26T15:21:33;11.50;1.00
75821;DHT22;64454;51.984;9.838;2024-02-26T15:23:59;11.30;1.00
75821;DHT22;64454;51.984;9.838;2024-02-26T15:26:26;11.10;1.00
75821;DHT22;64454;51.984;9.838;2024-02-26T15:28:52;11.00;1.00
75821;DHT22;64454;51.984;9.838;2024-02-26T15:31:19;11.10;1.00
75821;DHT22;64454;51.984;9.838;2024-02-26T15:33:45;11.10;1.00
75821;DHT22;64454;51.984;9.838;2024-02-26T15:36:11;11.10;1.00
75821;DHT22;64454;51.984;9.838;2024-02-26T15:38:38;11.10;1.00
75821;DHT22;64454;51.984;9.838;2024-02-26T15:41:10;11.00;1.00
75821;DHT22;64454;51.984;9.838;2024-02-26T15:43:38;11.00;1.00
75821;DHT22;64454;51.984;9.838;2024-02-26T15:46:04;10.90;1.00
75821;DHT22;64454;51.984;9.838;2024-02-26T15:48:31;11.00;1.00
75821;DHT22;64454;51.984;9.838;2024-02-26T15:50:57;11.00;1.00
75821;DHT22;64454;51.984;9.838;2024-02-26T15:53:23;11.00;1.00
75821;DHT22;64454;51.984;9.838;2024-02-26T15:55:50;11.10;1.00